createdAt,value
2019-04-11T09:03:07.244Z,99908.48
2019-04-11T09:05:29.151Z,99913.39
2019-04-11T09:07:39.390Z,99907.28
2019-04-11T09:10:02.256Z,99914.24
2019-04-11T09:12:12.106Z,99915.08
2019-04-11T09:14:40.005Z,99920.72
2019-04-11T09:17:05.822Z,99922.91
2019-04-11T09:19:25.047Z,99922.48
2019-04-11T09:21:48.724Z,99914.80
2019-04-11T09:23:54.305Z,99914.58
2019-04-11T09:26:20.973Z,99917.89
2019-04-11T09:28:51.630Z,99912.19
2019-04-11T09:31:15.358Z,99910.83
2019-04-11T09:33:42.636Z,99912.10
2019-04-11T09:35:49.212Z,99911.30
2019-04-11T09:37:55.095Z,99915.23
2019-04-11T09:40:26.320Z,99919.17
2019-04-11T09:42:53.563Z,99909.30
2019-04-11T09:45:14.945Z,99913.69
2019-04-11T09:47:34.799Z,99909.55
2019-04-11T09:49:45.507Z,99907.02
2019-04-11T09:52:06.015Z,99905.52
2019-04-11T09:54:44.147Z,99905.14
2019-04-11T09:57:07.853Z,99908.39
2019-04-11T09:59:18.008Z,99905.12
2019-04-11T10:01:58.864Z,99908.78
2019-04-11T10:04:04.296Z,99905.52
2019-04-11T10:06:38.757Z,99900.90
2019-04-11T10:08:46.943Z,99900.66
2019-04-11T10:11:10.221Z,99906.05
2019-04-11T10:13:35.596Z,99905.34
2019-04-11T10:15:55.694Z,99893.00
2019-04-11T10:18:25.035Z,99894.28
2019-04-11T10:20:26.686Z,99894.58
2019-04-11T10:22:49.412Z,99889.83
2019-04-11T10:25:10.772Z,99893.50
2019-04-11T10:27:26.684Z,99899.47
2019-04-11T10:30:09.679Z,99899.16
2019-04-11T10:32:15.545Z,99892.36
2019-04-11T10:34:37.474Z,99891.80
2019-04-11T10:36:56.257Z,99889.69
2019-04-11T10:39:21.556Z,99887.31
2019-04-11T10:41:32.694Z,99888.31
2019-04-11T10:43:37.782Z,99886.92
2019-04-11T10:46:04.544Z,99886.08
2019-04-11T10:48:09.684Z,99887.47
2019-04-11T10:50:34.046Z,99887.19
2019-04-11T10:52:44.669Z,99896.26
2019-04-11T10:55:25.226Z,99898.03
2019-04-11T10:57:44.592Z,99898.95
2019-04-11T10:59:51.824Z,99895.95
2019-04-11T11:02:19.427Z,99898.48
2019-04-11T11:04:27.629Z,99896.26
2019-04-11T11:06:33.087Z,99891.77
2019-04-11T11:08:44.207Z,99899.45
2019-04-11T11:10:50.636Z,99897.14
2019-04-11T11:13:13.944Z,99892.38
2019-04-11T11:15:25.388Z,99892.56
2019-04-11T11:18:21.699Z,99892.10
2019-04-11T11:20:27.438Z,99888.38
2019-04-11T11:22:46.145Z,99885.91
2019-04-11T11:25:12.688Z,99886.29
2019-04-11T11:27:16.748Z,99893.20
2019-04-11T11:29:47.513Z,99888.14
2019-04-11T11:32:02.906Z,99885.83
2019-04-11T11:34:17.324Z,99891.16
2019-04-11T11:36:39.667Z,99895.00
2019-04-11T11:38:58.410Z,99897.27
2019-04-11T11:41:22.619Z,99900.18
2019-04-11T11:43:30.944Z,99898.22
2019-04-11T11:45:58.925Z,99902.98
2019-04-11T11:48:24.759Z,99904.20
2019-04-11T11:50:33.468Z,99902.73
2019-04-11T11:52:54.777Z,99903.39
2019-04-11T11:54:59.919Z,99903.41
2019-04-11T11:57:10.787Z,99900.67
2019-04-11T11:59:34.796Z,99896.69
2019-04-11T12:01:46.493Z,99897.25
2019-04-11T12:04:05.200Z,99897.25
2019-04-11T12:06:10.354Z,99892.38
2019-04-11T12:08:48.149Z,99891.84
2019-04-11T12:11:02.298Z,99894.84
2019-04-11T12:13:40.566Z,99899.98
2019-04-11T12:16:07.899Z,99893.84
2019-04-11T12:18:32.928Z,99894.30
2019-04-11T12:20:44.732Z,99892.45
2019-04-11T12:22:52.129Z,99894.80
2019-04-11T12:25:09.184Z,99887.73
2019-04-11T12:27:45.833Z,99894.19
2019-04-11T12:30:23.413Z,99891.85
2019-04-11T12:32:28.942Z,99887.55
2019-04-11T12:34:49.434Z,99890.08
2019-04-11T12:36:56.101Z,99884.78
2019-04-11T12:39:28.966Z,99883.78
2019-04-11T12:41:57.849Z,99882.78
2019-04-11T12:44:18.073Z,99874.37
2019-04-11T12:46:40.710Z,99878.59
2019-04-11T12:48:47.999Z,99877.66
2019-04-11T12:51:21.278Z,99872.91
2019-04-11T12:53:27.262Z,99874.21
2019-04-11T12:55:38.226Z,99871.05
2019-04-11T12:58:01.246Z,99870.78
2019-04-11T13:00:17.538Z,99862.95
2019-04-11T13:02:51.265Z,99860.80
2019-04-11T13:04:56.513Z,99862.33
2019-04-11T13:07:32.959Z,99856.64
2019-04-11T13:09:47.783Z,99856.83
2019-04-11T13:11:53.323Z,99849.37
2019-04-11T13:14:19.495Z,99850.55
2019-04-11T13:16:26.191Z,99858.19
2019-04-11T13:19:03.306Z,99853.73
2019-04-11T13:21:19.238Z,99858.71
2019-04-11T13:23:55.345Z,99847.30
2019-04-11T13:26:18.631Z,99854.34
2019-04-11T13:28:23.681Z,99853.50
2019-04-11T13:30:46.510Z,99843.31
2019-04-11T13:32:53.727Z,99842.69
2019-04-11T13:35:03.494Z,99847.45
2019-04-11T13:37:26.382Z,99845.14
2019-04-11T13:39:31.495Z,99849.70
2019-04-11T13:42:11.202Z,99845.23
2019-04-11T13:44:31.948Z,99851.23
2019-04-11T13:46:56.703Z,99842.34
2019-04-11T13:49:22.914Z,99839.09
2019-04-11T13:51:38.759Z,99842.00
2019-04-11T13:54:01.778Z,99837.97
2019-04-11T13:56:06.794Z,99845.56
2019-04-11T13:58:29.879Z,99842.02
2019-04-11T14:00:43.431Z,99838.01
2019-04-11T14:03:05.855Z,99844.81
2019-04-11T14:05:11.335Z,99841.73
2019-04-11T14:07:18.140Z,99838.86
2019-04-11T14:09:45.571Z,99841.66
2019-04-11T14:11:52.031Z,99839.80
2019-04-11T14:13:57.106Z,99838.78
2019-04-11T14:16:04.590Z,99838.49
2019-04-11T14:18:18.535Z,99842.28
2019-04-11T14:20:30.457Z,99841.34
2019-04-11T14:22:45.115Z,99835.19
2019-04-11T14:25:11.433Z,99839.66
2019-04-11T14:27:22.123Z,99837.34
2019-04-11T14:29:39.170Z,99836.29
2019-04-11T14:32:04.827Z,99835.73
2019-04-11T14:34:29.314Z,99827.71
2019-04-11T14:37:08.850Z,99829.86
2019-04-11T14:39:15.605Z,99838.44
2019-04-11T14:41:42.452Z,99839.02
2019-04-11T14:43:51.772Z,99845.45
2019-04-11T14:46:15.774Z,99844.05
2019-04-11T14:48:26.308Z,99829.19
2019-04-11T14:50:44.997Z,99839.66
2019-04-11T14:53:16.719Z,99828.93
2019-04-11T14:55:21.609Z,99834.16
2019-04-11T14:57:54.579Z,99835.35
2019-04-11T15:00:04.522Z,99830.12
2019-04-11T15:02:25.128Z,99833.11
2019-04-11T15:04:46.699Z,99831.72
2019-04-11T15:06:52.659Z,99834.63
2019-04-11T15:09:20.189Z,99829.39
2019-04-11T15:11:40.486Z,99830.23
2019-04-11T15:13:48.124Z,99828.71
2019-04-11T15:16:15.032Z,99832.92
2019-04-11T15:18:21.294Z,99828.91
2019-04-11T15:20:41.172Z,99827.52
2019-04-11T15:22:52.156Z,99838.45
2019-04-11T15:25:02.718Z,99833.59
2019-04-11T15:27:25.305Z,99839.30
2019-04-11T15:29:32.851Z,99837.43
2019-04-11T15:32:01.981Z,99836.13
2019-04-11T15:34:23.802Z,99839.20
2019-04-11T15:36:29.346Z,99830.98
2019-04-11T15:38:58.024Z,99834.44
2019-04-11T15:41:03.578Z,99831.44
2019-04-11T15:43:42.632Z,99832.28
2019-04-11T15:46:01.296Z,99831.98
2019-04-11T15:48:23.998Z,99830.59
2019-04-11T15:50:47.016Z,99829.19
2019-04-11T15:53:06.609Z,99828.34
2019-04-11T15:55:29.690Z,99835.53
2019-04-11T15:57:46.608Z,99830.67
2019-04-11T16:00:14.449Z,99836.84
2019-04-11T16:02:47.847Z,99835.91
2019-04-11T16:05:10.718Z,99834.14
2019-04-11T16:07:33.454Z,99841.15
2019-04-11T16:09:39.873Z,99833.01
2019-04-11T16:11:58.846Z,99833.30
2019-04-11T16:14:09.790Z,99827.60
2019-04-11T16:16:14.824Z,99838.83
2019-04-11T16:18:36.860Z,99845.55
2019-04-11T16:20:41.958Z,99841.44
2019-04-11T16:23:08.679Z,99842.45
2019-04-11T16:25:18.703Z,99839.36
2019-04-11T16:27:48.835Z,99833.87
2019-04-11T16:29:59.317Z,99838.98
2019-04-11T16:32:07.756Z,99837.33
2019-04-11T16:34:30.786Z,99837.20
2019-04-11T16:36:53.400Z,99835.64
2019-04-11T16:39:19.948Z,99836.29
2019-04-11T16:41:42.374Z,99833.67
2019-04-11T16:46:37.578Z,99829.92
2019-04-11T16:48:42.626Z,99829.00
2019-04-11T16:50:47.651Z,99828.63
2019-04-11T16:52:52.663Z,99830.31
2019-04-11T16:54:57.806Z,99834.61
2019-04-11T16:57:02.831Z,99831.53
2019-04-11T16:59:07.946Z,99832.00
2019-04-11T17:01:13.018Z,99826.76
2019-04-11T17:03:18.083Z,99823.39
2019-04-11T17:05:24.045Z,99832.92
2019-04-11T17:07:47.883Z,99830.40
2019-04-11T17:09:56.494Z,99831.24
2019-04-11T17:12:00.543Z,99840.49
2019-04-11T17:14:05.575Z,99835.84
2019-04-11T17:16:18.198Z,99834.16
2019-04-11T17:18:23.276Z,99835.47
2019-04-11T17:20:28.322Z,99836.40
2019-04-11T17:22:33.443Z,99842.56
2019-04-11T17:24:38.478Z,99840.50
2019-04-11T17:26:43.480Z,99836.66
2019-04-11T17:28:48.611Z,99832.95
2019-04-11T17:30:55.781Z,99830.03
2019-04-11T17:33:00.427Z,99837.72
2019-04-11T17:35:05.800Z,99843.97
2019-04-11T17:37:10.899Z,99836.29
2019-04-11T17:39:15.951Z,99836.03
2019-04-11T17:41:20.958Z,99837.59
2019-04-11T17:43:26.046Z,99831.61
2019-04-11T17:45:31.070Z,99832.66
2019-04-11T17:47:36.206Z,99828.41
2019-04-11T17:49:41.234Z,99837.27
2019-04-11T17:51:55.314Z,99834.86
2019-04-11T17:53:55.563Z,99834.10
2019-04-11T17:55:59.791Z,99837.35
2019-04-11T17:58:04.806Z,99834.09
2019-04-11T18:00:13.214Z,99833.42
2019-04-11T18:02:18.314Z,99840.89
2019-04-11T18:04:23.313Z,99837.16
2019-04-11T18:06:28.345Z,99839.02
2019-04-11T18:08:33.380Z,99840.96
2019-04-11T18:10:38.403Z,99838.16
2019-04-11T18:12:43.418Z,99838.33
2019-04-11T18:14:48.462Z,99835.08
2019-04-11T18:16:53.502Z,99839.55
2019-04-11T18:18:59.583Z,99837.48
2019-04-11T18:21:06.969Z,99838.14
2019-04-11T18:23:11.441Z,99839.69
2019-04-11T18:25:16.520Z,99845.93
2019-04-11T18:27:22.386Z,99842.67
2019-04-11T18:29:27.402Z,99839.84
2019-04-11T18:31:32.453Z,99846.95
2019-04-11T18:33:37.511Z,99843.19
2019-04-11T18:35:42.906Z,99840.20
2019-04-11T18:37:48.984Z,99846.05
2019-04-11T18:39:54.039Z,99841.86
2019-04-11T18:41:59.042Z,99844.77
2019-04-11T18:44:04.072Z,99845.72
2019-04-11T18:46:10.792Z,99845.04
2019-04-11T18:48:16.822Z,99844.35
2019-04-11T18:50:23.027Z,99849.39
2019-04-11T18:52:29.133Z,99841.71
2019-04-11T18:54:34.230Z,99846.67
2019-04-11T18:56:39.271Z,99842.91
2019-04-11T18:58:45.337Z,99838.61
2019-04-11T19:00:50.378Z,99844.37
2019-04-11T19:02:55.433Z,99851.83
2019-04-11T19:05:02.140Z,99848.02
2019-04-11T19:07:12.747Z,99846.48
2019-04-11T19:09:16.991Z,99849.83
2019-04-11T19:11:22.234Z,99855.59
2019-04-11T19:13:28.430Z,99855.66
2019-04-11T19:15:33.459Z,99859.28
2019-04-11T19:17:38.519Z,99856.47
2019-04-11T19:19:43.927Z,99866.69
2019-04-11T19:21:51.073Z,99862.03
2019-04-11T19:23:55.662Z,99866.03
2019-04-11T19:26:00.690Z,99864.80
2019-04-11T19:28:05.707Z,99862.73
2019-04-11T19:30:10.749Z,99865.80
2019-04-11T19:32:15.757Z,99869.90
2019-04-11T19:34:21.191Z,99863.06
2019-04-11T19:36:26.257Z,99868.90
2019-04-11T19:38:33.209Z,99869.00
2019-04-11T19:40:38.222Z,99867.84
2019-04-11T19:42:43.294Z,99864.86
2019-04-11T19:44:49.784Z,99870.08
2019-04-11T19:46:55.370Z,99871.00
2019-04-11T19:49:00.400Z,99876.29
2019-04-11T19:51:05.758Z,99871.30
2019-04-11T19:53:10.810Z,99875.36
2019-04-11T19:55:34.652Z,99877.23
2019-04-11T19:57:39.377Z,99882.91
2019-04-11T19:59:44.387Z,99876.53
2019-04-11T20:01:50.773Z,99875.77
2019-04-11T20:03:56.415Z,99876.30
2019-04-11T20:06:01.445Z,99880.22
2019-04-11T20:08:07.522Z,99879.93
2019-04-11T20:10:12.575Z,99879.23
2019-04-11T20:12:17.597Z,99876.31
2019-04-11T20:14:22.977Z,99877.27
2019-04-11T20:16:28.000Z,99887.00
2019-04-11T20:18:33.100Z,99884.47
2019-04-11T20:20:38.249Z,99892.36
2019-04-11T20:22:43.278Z,99894.59
2019-04-11T20:24:48.379Z,99890.67
2019-04-11T20:26:53.505Z,99897.38
2019-04-11T20:28:58.587Z,99895.61
2019-04-11T20:31:03.605Z,99894.77
2019-04-11T20:33:08.729Z,99893.00
2019-04-11T20:35:13.753Z,99891.45
2019-04-11T20:37:18.755Z,99896.67
2019-04-11T20:39:23.782Z,99897.52
2019-04-11T20:41:28.850Z,99889.41
2019-04-11T20:43:36.562Z,99895.08
2019-04-11T20:45:43.754Z,99892.94
2019-04-11T20:47:50.022Z,99887.72
2019-04-11T20:49:57.666Z,99891.63
2019-04-11T20:52:05.492Z,99893.85
2019-04-11T20:54:12.872Z,99892.23
2019-04-11T20:56:24.350Z,99891.00
2019-04-11T20:58:29.006Z,99892.77
2019-04-11T21:00:36.141Z,99891.07
2019-04-11T21:02:44.033Z,99896.39
2019-04-11T21:04:52.494Z,99895.09
2019-04-11T21:07:02.096Z,99899.07
2019-04-11T21:09:11.427Z,99898.61
2019-04-11T21:11:19.719Z,99898.30
2019-04-11T21:13:26.982Z,99900.06
2019-04-11T21:15:34.298Z,99901.82
2019-04-11T21:17:42.656Z,99910.56
2019-04-11T21:19:53.133Z,99908.41
2019-04-11T21:22:03.507Z,99905.80
2019-04-11T21:24:10.350Z,99910.27
2019-04-11T21:26:18.851Z,99898.54
2019-04-11T21:28:30.043Z,99902.52
2019-04-11T21:30:36.464Z,99900.38
2019-04-11T21:32:44.306Z,99902.20
2019-04-11T21:34:53.453Z,99901.81
2019-04-11T21:37:02.683Z,99900.13
2019-04-11T21:39:10.805Z,99905.52
2019-04-11T21:41:19.251Z,99901.22
2019-04-11T21:43:25.483Z,99896.92
2019-04-11T21:45:35.961Z,99899.59
2019-04-11T21:47:43.827Z,99897.45
2019-04-11T21:49:53.327Z,99896.98
2019-04-11T21:52:03.053Z,99900.44
2019-04-11T21:54:09.562Z,99892.23
2019-04-11T21:56:18.580Z,99892.75
2019-04-11T21:58:24.987Z,99892.37
2019-04-11T22:00:41.201Z,99900.29
2019-04-11T22:02:54.034Z,99904.27
2019-04-11T22:04:59.689Z,99902.19
2019-04-11T22:07:07.726Z,99901.80
2019-04-11T22:09:16.176Z,99907.48
2019-04-11T22:11:25.134Z,99904.48
2019-04-11T22:13:34.351Z,99899.34
2019-04-11T22:15:42.408Z,99898.03
2019-04-11T22:17:48.847Z,99897.25
2019-04-11T22:19:57.265Z,99896.80
2019-04-11T22:22:05.731Z,99891.27
2019-04-11T22:24:12.685Z,99897.71
2019-04-11T22:26:19.648Z,99894.72
2019-04-11T22:28:30.352Z,99896.48
2019-04-11T22:30:37.510Z,99903.06
2019-04-11T22:32:45.777Z,99901.37
2019-04-11T22:34:53.575Z,99903.69
2019-04-11T22:37:02.419Z,99898.09
2019-04-11T22:39:12.431Z,99900.70
2019-04-11T22:41:19.319Z,99899.00
2019-04-11T22:43:27.430Z,99903.44
2019-04-11T22:45:37.964Z,99898.69
2019-04-11T22:47:44.438Z,99907.73
2019-04-11T22:49:51.526Z,99906.43
2019-04-11T22:51:59.402Z,99898.30
2019-04-11T22:54:06.251Z,99896.08
2019-04-11T22:56:14.062Z,99898.30
2019-04-11T22:58:23.993Z,99891.88
2019-04-11T23:00:29.972Z,99896.24
2019-04-11T23:02:51.725Z,99889.02
2019-04-11T23:04:59.104Z,99890.32
2019-04-11T23:07:07.238Z,99895.67
2019-04-11T23:09:16.626Z,99894.83
2019-04-11T23:11:25.734Z,99896.13
2019-04-11T23:13:32.270Z,99894.47
2019-04-11T23:15:43.621Z,99892.67
2019-04-11T23:17:53.258Z,99895.67
2019-04-11T23:20:02.450Z,99900.98
2019-04-11T23:22:12.144Z,99900.03
2019-04-11T23:24:21.035Z,99896.58
2019-04-11T23:26:27.924Z,99898.90
2019-04-11T23:28:36.311Z,99897.66
2019-04-11T23:30:43.337Z,99904.63
2019-04-11T23:32:51.786Z,99906.85
2019-04-11T23:35:01.230Z,99901.25
2019-04-11T23:37:07.866Z,99897.73
2019-04-11T23:39:16.790Z,99901.64
2019-04-11T23:41:23.752Z,99887.83
2019-04-11T23:43:30.986Z,99893.50
2019-04-11T23:45:37.897Z,99889.30
2019-04-11T23:47:44.891Z,99888.91
2019-04-11T23:49:55.111Z,99887.16
2019-04-11T23:52:00.502Z,99888.91
2019-04-11T23:54:09.138Z,99890.22
2019-04-11T23:56:16.995Z,99894.06
2019-04-11T23:58:23.537Z,99887.68
